Dunlap, Indiana
Current Conditions -  °F | °C
As of 2:53 PM on Saturday 20 Dec 2014 (Local Time) from KGSH Reporting Station
Haze Haze  
Wind Chill: 31°   Ceiling: 2600
Heat Index: 31°   Visibility: 5mi
Dew Point: 27°   Wind: 0mph
Humidity: 85%   Direction: NA
Pressure: 30.24"   Gusts: NA
Location:  41.6236°N, 85.9974°W
Report Text: KGSH 201953Z AUTO 00000KT 5SM BR FEW018 OVC026 M01/M03 A3024 RMK AO2 SNB25E53 SLP250 P0000 T10061028
Loading
Personal Weather Stations






























Interactive Weather Map New forecast layout! Learn more

10-Day Weather Forecast

Advertisements
Track Severe Weather on mobile